sensor_id;sensor_type;location;lat;lon;timestamp;temperature;humidity
2565;DHT22;1292;48.020;7.822;2022-12-10T06:45:56;2.20;99.90
2565;DHT22;1292;48.020;7.822;2022-12-10T06:48:23;2.20;99.90
2565;DHT22;1292;48.020;7.822;2022-12-10T06:50:50;2.10;99.90
2565;DHT22;1292;48.020;7.822;2022-12-10T06:53:17;2.10;99.90
2565;DHT22;1292;48.020;7.822;2022-12-10T06:55:43;2.20;99.90
2565;DHT22;1292;48.020;7.822;2022-12-10T06:58:10;2.20;99.90
2565;DHT22;1292;48.020;7.822;2022-12-10T07:00:37;2.20;99.90
2565;DHT22;1292;48.020;7.822;2022-12-10T07:03:05;2.20;99.90
2565;DHT22;1292;48.020;7.822;2022-12-10T07:05:32;2.20;99.90
2565;DHT22;1292;48.020;7.822;2022-12-10T07:07:59;2.00;99.90
2565;DHT22;1292;48.020;7.822;2022-12-10T07:10:26;2.10;99.90
2565;DHT22;1292;48.020;7.822;2022-12-10T07:12:53;2.20;99.90
2565;DHT22;1292;48.020;7.822;2022-12-10T07:15:20;2.20;99.90
2565;DHT22;1292;48.020;7.822;2022-12-10T07:17:50;2.20;99.90
2565;DHT22;1292;48.020;7.822;2022-12-10T07:20:18;2.20;99.90
2565;DHT22;1292;48.020;7.822;2022-12-10T07:22:45;2.20;99.90
2565;DHT22;1292;48.020;7.822;2022-12-10T07:25:12;2.30;99.90
2565;DHT22;1292;48.020;7.822;2022-12-10T07:27:38;2.30;99.90
2565;DHT22;1292;48.020;7.822;2022-12-10T07:30:06;2.30;99.90
2565;DHT22;1292;48.020;7.822;2022-12-10T07:32:33;2.20;99.90
2565;DHT22;1292;48.020;7.822;2022-12-10T07:35:00;2.10;99.90
2565;DHT22;1292;48.020;7.822;2022-12-10T07:37:28;2.10;99.90
2565;DHT22;1292;48.020;7.822;2022-12-10T07:39:55;2.10;99.90
2565;DHT22;1292;48.020;7.822;2022-12-10T07:42:22;2.20;99.90
2565;DHT22;1292;48.020;7.822;2022-12-10T07:44:49;2.20;99.90
2565;DHT22;1292;48.020;7.822;2022-12-10T07:47:16;2.20;99.90
2565;DHT22;1292;48.020;7.822;2022-12-10T07:49:42;2.30;99.90
2565;DHT22;1292;48.020;7.822;2022-12-10T07:52:09;2.30;99.90
2565;DHT22;1292;48.020;7.822;2022-12-10T07:54:37;2.20;99.90
2565;DHT22;1292;48.020;7.822;2022-12-10T07:57:04;2.30;99.90
2565;DHT22;1292;48.020;7.822;2022-12-10T07:59:32;2.30;99.90
2565;DHT22;1292;48.020;7.822;2022-12-10T08:01:59;2.30;99.90
2565;DHT22;1292;48.020;7.822;2022-12-10T08:04:27;2.30;99.90
2565;DHT22;1292;48.020;7.822;2022-12-10T08:06:55;2.30;99.90
2565;DHT22;1292;48.020;7.822;2022-12-10T08:09:22;2.30;99.90
2565;DHT22;1292;48.020;7.822;2022-12-10T08:11:50;2.40;99.90
2565;DHT22;1292;48.020;7.822;2022-12-10T08:14:18;2.40;99.90
2565;DHT22;1292;48.020;7.822;2022-12-10T08:16:46;2.40;99.90
2565;DHT22;1292;48.020;7.822;2022-12-10T08:19:13;2.50;99.90
2565;DHT22;1292;48.020;7.822;2022-12-10T08:21:40;2.50;99.90
2565;DHT22;1292;48.020;7.822;2022-12-10T08:24:06;2.40;99.90
2565;DHT22;1292;48.020;7.822;2022-12-10T08:26:33;2.40;99.90
2565;DHT22;1292;48.020;7.822;2022-12-10T08:29:02;2.40;99.90
2565;DHT22;1292;48.020;7.822;2022-12-10T08:31:29;2.40;99.90
2565;DHT22;1292;48.020;7.822;2022-12-10T08:33:56;2.40;99.90
2565;DHT22;1292;48.020;7.822;2022-12-10T08:36:23;2.30;99.90
2565;DHT22;1292;48.020;7.822;2022-12-10T08:38:50;2.40;99.90
2565;DHT22;1292;48.020;7.822;2022-12-10T08:41:18;2.40;99.90
2565;DHT22;1292;48.020;7.822;2022-12-10T08:43:45;2.40;99.90
2565;DHT22;1292;48.020;7.822;2022-12-10T08:46:14;2.40;99.90
2565;DHT22;1292;48.020;7.822;2022-12-10T08:48:42;2.40;99.90
2565;DHT22;1292;48.020;7.822;2022-12-10T08:51:11;2.40;99.90
2565;DHT22;1292;48.020;7.822;2022-12-10T08:53:39;2.50;99.90
2565;DHT22;1292;48.020;7.822;2022-12-10T08:56:07;2.30;99.90
2565;DHT22;1292;48.020;7.822;2022-12-10T08:58:34;2.30;99.90
2565;DHT22;1292;48.020;7.822;2022-12-10T09:01:06;2.30;99.90
2565;DHT22;1292;48.020;7.822;2022-12-10T09:03:34;2.40;99.90
2565;DHT22;1292;48.020;7.822;2022-12-10T09:06:03;2.40;99.90
2565;DHT22;1292;48.020;7.822;2022-12-10T09:08:30;2.50;99.90
2565;DHT22;1292;48.020;7.822;2022-12-10T09:10:57;2.50;99.90
2565;DHT22;1292;48.020;7.822;2022-12-10T09:13:24;2.40;99.90
2565;DHT22;1292;48.020;7.822;2022-12-10T09:19:29;2.40;99.90
2565;DHT22;1292;48.020;7.822;2022-12-10T09:22:00;2.40;99.90
2565;DHT22;1292;48.020;7.822;2022-12-10T09:24:27;2.40;99.90
2565;DHT22;1292;48.020;7.822;2022-12-10T09:26:54;2.40;99.90
2565;DHT22;1292;48.020;7.822;2022-12-10T09:29:21;2.40;99.90
2565;DHT22;1292;48.020;7.822;2022-12-10T09:31:49;2.40;99.90
2565;DHT22;1292;48.020;7.822;2022-12-10T09:34:17;2.30;99.90
2565;DHT22;1292;48.020;7.822;2022-12-10T09:36:45;2.30;99.90
2565;DHT22;1292;48.020;7.822;2022-12-10T09:39:12;2.40;99.90
2565;DHT22;1292;48.020;7.822;2022-12-10T09:41:59;2.40;99.90
2565;DHT22;1292;48.020;7.822;2022-12-10T09:44:39;2.40;99.90
2565;DHT22;1292;48.020;7.822;2022-12-10T09:47:09;2.50;99.90
2565;DHT22;1292;48.020;7.822;2022-12-10T09:49:45;2.50;99.90
2565;DHT22;1292;48.020;7.822;2022-12-10T09:52:18;2.50;99.90
2565;DHT22;1292;48.020;7.822;2022-12-10T09:54:49;2.50;99.90
2565;DHT22;1292;48.020;7.822;2022-12-10T09:57:20;2.50;99.90
2565;DHT22;1292;48.020;7.822;2022-12-10T09:59:50;2.50;99.90
2565;DHT22;1292;48.020;7.822;2022-12-10T10:02:22;2.40;99.90
2565;DHT22;1292;48.020;7.822;2022-12-10T10:04:53;2.50;99.90
2565;DHT22;1292;48.020;7.822;2022-12-10T10:07:24;2.50;99.90
2565;DHT22;1292;48.020;7.822;2022-12-10T10:09:56;2.40;99.90
2565;DHT22;1292;48.020;7.822;2022-12-10T10:12:25;2.50;99.90
2565;DHT22;1292;48.020;7.822;2022-12-10T10:14:53;2.50;99.90
2565;DHT22;1292;48.020;7.822;2022-12-10T10:17:22;2.60;99.90
2565;DHT22;1292;48.020;7.822;2022-12-10T10:19:53;2.50;99.90
2565;DHT22;1292;48.020;7.822;2022-12-10T10:22:22;2.50;99.90
2565;DHT22;1292;48.020;7.822;2022-12-10T10:24:48;2.50;99.90
2565;DHT22;1292;48.020;7.822;2022-12-10T10:27:17;2.50;99.90
2565;DHT22;1292;48.020;7.822;2022-12-10T10:29:46;2.30;99.90
2565;DHT22;1292;48.020;7.822;2022-12-10T10:32:16;2.40;99.90
2565;DHT22;1292;48.020;7.822;2022-12-10T10:34:45;2.50;99.90
2565;DHT22;1292;48.020;7.822;2022-12-10T10:37:18;2.40;99.90
2565;DHT22;1292;48.020;7.822;2022-12-10T10:39:49;2.40;99.90
2565;DHT22;1292;48.020;7.822;2022-12-10T10:42:27;2.40;99.90
2565;DHT22;1292;48.020;7.822;2022-12-10T10:44:59;2.40;99.90
2565;DHT22;1292;48.020;7.822;2022-12-10T10:47:28;2.40;99.90
2565;DHT22;1292;48.020;7.822;2022-12-10T10:49:55;2.50;99.90
2565;DHT22;1292;48.020;7.822;2022-12-10T10:52:22;2.40;99.90
2565;DHT22;1292;48.020;7.822;2022-12-10T10:54:50;2.40;99.90
2565;DHT22;1292;48.020;7.822;2022-12-10T10:57:21;2.20;99.90
2565;DHT22;1292;48.020;7.822;2022-12-10T10:59:51;2.00;99.90
2565;DHT22;1292;48.020;7.822;2022-12-10T11:02:22;2.00;99.90
2565;DHT22;1292;48.020;7.822;2022-12-10T11:04:50;1.90;99.90
2565;DHT22;1292;48.020;7.822;2022-12-10T11:07:24;1.80;99.90
2565;DHT22;1292;48.020;7.822;2022-12-10T11:09:54;1.80;99.90
2565;DHT22;1292;48.020;7.822;2022-12-10T11:12:30;1.80;99.90
2565;DHT22;1292;48.020;7.822;2022-12-10T11:14:59;1.90;99.90
2565;DHT22;1292;48.020;7.822;2022-12-10T11:17:27;1.90;99.90
2565;DHT22;1292;48.020;7.822;2022-12-10T11:19:57;1.90;99.90
2565;DHT22;1292;48.020;7.822;2022-12-10T11:22:27;1.80;99.90
2565;DHT22;1292;48.020;7.822;2022-12-10T11:24:55;1.90;99.90
2565;DHT22;1292;48.020;7.822;2022-12-10T11:27:33;1.80;99.90
2565;DHT22;1292;48.020;7.822;2022-12-10T11:30:08;1.80;99.90
2565;DHT22;1292;48.020;7.822;2022-12-10T11:32:46;1.90;99.90
2565;DHT22;1292;48.020;7.822;2022-12-10T11:35:19;1.90;99.90
2565;DHT22;1292;48.020;7.822;2022-12-10T11:37:53;1.90;99.90
2565;DHT22;1292;48.020;7.822;2022-12-10T11:40:37;1.90;99.90
2565;DHT22;1292;48.020;7.822;2022-12-10T11:43:19;1.80;99.90
2565;DHT22;1292;48.020;7.822;2022-12-10T11:45:53;1.90;99.90
2565;DHT22;1292;48.020;7.822;2022-12-10T11:48:34;2.00;99.90
2565;DHT22;1292;48.020;7.822;2022-12-10T11:51:11;2.10;99.90
2565;DHT22;1292;48.020;7.822;2022-12-10T11:53:55;2.10;99.90
2565;DHT22;1292;48.020;7.822;2022-12-10T11:56:31;2.00;99.90
2565;DHT22;1292;48.020;7.822;2022-12-10T11:59:06;2.10;99.90
2565;DHT22;1292;48.020;7.822;2022-12-10T12:01:47;2.00;99.90
2565;DHT22;1292;48.020;7.822;2022-12-10T12:04:33;2.00;99.90
2565;DHT22;1292;48.020;7.822;2022-12-10T12:07:26;2.00;99.90
2565;DHT22;1292;48.020;7.822;2022-12-10T12:12:54;2.00;99.90
2565;DHT22;1292;48.020;7.822;2022-12-10T12:15:28;1.90;99.90
2565;DHT22;1292;48.020;7.822;2022-12-10T12:17:59;2.00;99.90
2565;DHT22;1292;48.020;7.822;2022-12-10T12:20:30;1.90;99.90
2565;DHT22;1292;48.020;7.822;2022-12-10T12:23:02;1.80;99.90
2565;DHT22;1292;48.020;7.822;2022-12-10T12:25:35;1.90;99.90
2565;DHT22;1292;48.020;7.822;2022-12-10T12:28:10;2.00;99.90
2565;DHT22;1292;48.020;7.822;2022-12-10T12:30:38;1.80;99.90
2565;DHT22;1292;48.020;7.822;2022-12-10T12:33:13;1.80;99.90
2565;DHT22;1292;48.020;7.822;2022-12-10T12:35:46;1.70;99.90
2565;DHT22;1292;48.020;7.822;2022-12-10T12:38:28;1.70;99.90
2565;DHT22;1292;48.020;7.822;2022-12-10T12:41:00;1.80;99.90
2565;DHT22;1292;48.020;7.822;2022-12-10T12:43:38;1.80;99.90
2565;DHT22;1292;48.020;7.822;2022-12-10T12:46:12;1.80;99.90
2565;DHT22;1292;48.020;7.822;2022-12-10T12:48:46;1.80;99.90
2565;DHT22;1292;48.020;7.822;2022-12-10T12:51:19;1.80;99.90
2565;DHT22;1292;48.020;7.822;2022-12-10T12:53:47;1.80;99.90
2565;DHT22;1292;48.020;7.822;2022-12-10T12:56:24;1.90;99.90
2565;DHT22;1292;48.020;7.822;2022-12-10T12:59:04;1.70;99.90
2565;DHT22;1292;48.020;7.822;2022-12-10T13:01:40;1.80;99.90
2565;DHT22;1292;48.020;7.822;2022-12-10T13:04:10;1.90;99.90
2565;DHT22;1292;48.020;7.822;2022-12-10T13:06:39;1.90;99.90
2565;DHT22;1292;48.020;7.822;2022-12-10T13:09:23;2.00;99.90
2565;DHT22;1292;48.020;7.822;2022-12-10T13:15:11;2.00;99.90
2565;DHT22;1292;48.020;7.822;2022-12-10T13:18:01;2.00;99.90
2565;DHT22;1292;48.020;7.822;2022-12-10T13:20:30;2.20;99.90
2565;DHT22;1292;48.020;7.822;2022-12-10T13:22:59;2.20;99.90
2565;DHT22;1292;48.020;7.822;2022-12-10T13:25:42;2.30;99.90
2565;DHT22;1292;48.020;7.822;2022-12-10T13:28:27;2.20;99.90
2565;DHT22;1292;48.020;7.822;2022-12-10T13:31:16;2.20;99.90
2565;DHT22;1292;48.020;7.822;2022-12-10T13:33:50;2.00;99.90
2565;DHT22;1292;48.020;7.822;2022-12-10T13:36:24;2.10;99.90
2565;DHT22;1292;48.020;7.822;2022-12-10T13:38:57;2.10;99.90
2565;DHT22;1292;48.020;7.822;2022-12-10T13:41:24;2.20;99.90
2565;DHT22;1292;48.020;7.822;2022-12-10T13:44:34;2.30;99.90
2565;DHT22;1292;48.020;7.822;2022-12-10T13:47:24;2.30;99.90
2565;DHT22;1292;48.020;7.822;2022-12-10T13:49:54;2.20;99.90
2565;DHT22;1292;48.020;7.822;2022-12-10T13:52:26;2.20;99.90
2565;DHT22;1292;48.020;7.822;2022-12-10T13:55:07;2.10;99.90
2565;DHT22;1292;48.020;7.822;2022-12-10T13:57:56;2.10;99.90
2565;DHT22;1292;48.020;7.822;2022-12-10T14:00:34;2.00;99.90
2565;DHT22;1292;48.020;7.822;2022-12-10T14:06:17;2.00;99.90
2565;DHT22;1292;48.020;7.822;2022-12-10T14:09:03;2.00;99.90
2565;DHT22;1292;48.020;7.822;2022-12-10T14:11:33;2.00;99.90
2565;DHT22;1292;48.020;7.822;2022-12-10T14:14:01;2.00;99.90
2565;DHT22;1292;48.020;7.822;2022-12-10T14:16:31;2.00;99.90
2565;DHT22;1292;48.020;7.822;2022-12-10T14:19:00;1.90;99.90
2565;DHT22;1292;48.020;7.822;2022-12-10T14:21:32;1.90;99.90
2565;DHT22;1292;48.020;7.822;2022-12-10T14:24:00;1.90;99.90
2565;DHT22;1292;48.020;7.822;2022-12-10T14:26:29;1.90;99.90
2565;DHT22;1292;48.020;7.822;2022-12-10T14:28:58;1.90;99.90
2565;DHT22;1292;48.020;7.822;2022-12-10T14:31:28;2.00;99.90
2565;DHT22;1292;48.020;7.822;2022-12-10T14:34:00;2.00;99.90
2565;DHT22;1292;48.020;7.822;2022-12-10T14:36:31;2.00;99.90
2565;DHT22;1292;48.020;7.822;2022-12-10T14:38:59;1.90;99.90
2565;DHT22;1292;48.020;7.822;2022-12-10T14:41:30;1.90;99.90
2565;DHT22;1292;48.020;7.822;2022-12-10T14:44:01;1.90;99.90
2565;DHT22;1292;48.020;7.822;2022-12-10T14:46:30;1.90;99.90
2565;DHT22;1292;48.020;7.822;2022-12-10T14:48:57;1.60;99.90
2565;DHT22;1292;48.020;7.822;2022-12-10T14:51:30;1.70;99.90
2565;DHT22;1292;48.020;7.822;2022-12-10T14:53:59;1.90;99.90
2565;DHT22;1292;48.020;7.822;2022-12-10T14:56:28;1.70;99.90
2565;DHT22;1292;48.020;7.822;2022-12-10T14:59:02;1.60;99.90
2565;DHT22;1292;48.020;7.822;2022-12-10T15:01:32;1.70;99.90
2565;DHT22;1292;48.020;7.822;2022-12-10T15:04:01;1.70;99.90
2565;DHT22;1292;48.020;7.822;2022-12-10T15:06:33;1.80;99.90
2565;DHT22;1292;48.020;7.822;2022-12-10T15:09:03;1.80;99.90
2565;DHT22;1292;48.020;7.822;2022-12-10T15:11:31;1.70;99.90
2565;DHT22;1292;48.020;7.822;2022-12-10T15:14:00;1.60;99.90
2565;DHT22;1292;48.020;7.822;2022-12-10T15:16:31;1.70;99.90
2565;DHT22;1292;48.020;7.822;2022-12-10T15:19:23;1.80;99.90
2565;DHT22;1292;48.020;7.822;2022-12-10T15:21:52;1.50;99.90
2565;DHT22;1292;48.020;7.822;2022-12-10T15:24:25;1.50;99.90
2565;DHT22;1292;48.020;7.822;2022-12-10T15:26:52;1.60;99.90
2565;DHT22;1292;48.020;7.822;2022-12-10T15:29:33;1.50;99.90
2565;DHT22;1292;48.020;7.822;2022-12-10T15:32:05;1.40;99.90
2565;DHT22;1292;48.020;7.822;2022-12-10T15:34:38;1.40;99.90
2565;DHT22;1292;48.020;7.822;2022-12-10T15:37:06;1.40;99.90
2565;DHT22;1292;48.020;7.822;2022-12-10T15:39:46;1.40;99.90
2565;DHT22;1292;48.020;7.822;2022-12-10T15:42:29;1.40;99.90
2565;DHT22;1292;48.020;7.822;2022-12-10T15:45:02;1.30;99.90
2565;DHT22;1292;48.020;7.822;2022-12-10T15:47:30;1.40;99.90
2565;DHT22;1292;48.020;7.822;2022-12-10T15:49:58;1.40;99.90
2565;DHT22;1292;48.020;7.822;2022-12-10T15:52:27;1.40;99.90
2565;DHT22;1292;48.020;7.822;2022-12-10T15:54:56;1.30;99.90
2565;DHT22;1292;48.020;7.822;2022-12-10T15:57:26;1.40;99.90
2565;DHT22;1292;48.020;7.822;2022-12-10T15:59:55;1.40;99.90
2565;DHT22;1292;48.020;7.822;2022-12-10T16:02:30;1.40;99.90
2565;DHT22;1292;48.020;7.822;2022-12-10T16:04:59;1.50;99.90
2565;DHT22;1292;48.020;7.822;2022-12-10T16:07:26;1.60;99.90
2565;DHT22;1292;48.020;7.822;2022-12-10T16:09:54;1.60;99.90
2565;DHT22;1292;48.020;7.822;2022-12-10T16:12:21;1.50;99.90
2565;DHT22;1292;48.020;7.822;2022-12-10T16:14:49;1.60;99.90
2565;DHT22;1292;48.020;7.822;2022-12-10T16:17:17;1.50;99.90
2565;DHT22;1292;48.020;7.822;2022-12-10T16:19:44;1.50;99.90
2565;DHT22;1292;48.020;7.822;2022-12-10T16:22:11;1.50;99.90
2565;DHT22;1292;48.020;7.822;2022-12-10T16:24:38;1.40;99.90
2565;DHT22;1292;48.020;7.822;2022-12-10T16:27:12;1.50;99.90
2565;DHT22;1292;48.020;7.822;2022-12-10T16:29:39;1.40;99.90
2565;DHT22;1292;48.020;7.822;2022-12-10T16:32:08;1.50;99.90
2565;DHT22;1292;48.020;7.822;2022-12-10T16:34:35;1.50;99.90
2565;DHT22;1292;48.020;7.822;2022-12-10T16:37:02;1.60;99.90
2565;DHT22;1292;48.020;7.822;2022-12-10T16:39:29;1.60;99.90
2565;DHT22;1292;48.020;7.822;2022-12-10T16:41:56;1.60;99.90
2565;DHT22;1292;48.020;7.822;2022-12-10T16:44:25;1.60;99.90
2565;DHT22;1292;48.020;7.822;2022-12-10T16:46:51;1.60;99.90
2565;DHT22;1292;48.020;7.822;2022-12-10T16:49:18;1.70;99.90
2565;DHT22;1292;48.020;7.822;2022-12-10T16:51:45;1.60;99.90
2565;DHT22;1292;48.020;7.822;2022-12-10T16:54:12;1.70;99.90
2565;DHT22;1292;48.020;7.822;2022-12-10T16:56:40;1.80;99.90
2565;DHT22;1292;48.020;7.822;2022-12-10T16:59:07;1.80;99.90
2565;DHT22;1292;48.020;7.822;2022-12-10T17:01:37;1.80;99.90
2565;DHT22;1292;48.020;7.822;2022-12-10T17:04:04;1.80;99.90
2565;DHT22;1292;48.020;7.822;2022-12-10T17:06:30;1.80;99.90
2565;DHT22;1292;48.020;7.822;2022-12-10T17:08:57;1.90;99.90
2565;DHT22;1292;48.020;7.822;2022-12-10T17:11:27;1.90;99.90
2565;DHT22;1292;48.020;7.822;2022-12-10T17:14:21;2.00;99.90
2565;DHT22;1292;48.020;7.822;2022-12-10T17:16:51;2.00;99.90
2565;DHT22;1292;48.020;7.822;2022-12-10T17:19:19;1.90;99.90
2565;DHT22;1292;48.020;7.822;2022-12-10T17:21:46;1.80;99.90
2565;DHT22;1292;48.020;7.822;2022-12-10T17:24:13;1.90;99.90
2565;DHT22;1292;48.020;7.822;2022-12-10T17:26:42;2.00;99.90
2565;DHT22;1292;48.020;7.822;2022-12-10T17:29:13;2.00;99.90
2565;DHT22;1292;48.020;7.822;2022-12-10T17:31:41;2.10;99.90
2565;DHT22;1292;48.020;7.822;2022-12-10T17:34:10;1.90;99.90
2565;DHT22;1292;48.020;7.822;2022-12-10T17:36:40;1.80;99.90
2565;DHT22;1292;48.020;7.822;2022-12-10T17:39:09;1.80;99.90
2565;DHT22;1292;48.020;7.822;2022-12-10T17:41:38;1.90;99.90
2565;DHT22;1292;48.020;7.822;2022-12-10T17:44:05;1.80;99.90
2565;DHT22;1292;48.020;7.822;2022-12-10T17:46:32;1.80;99.90
2565;DHT22;1292;48.020;7.822;2022-12-10T17:48:59;1.70;99.90
2565;DHT22;1292;48.020;7.822;2022-12-10T17:51:29;1.70;99.90
2565;DHT22;1292;48.020;7.822;2022-12-10T17:53:56;1.70;99.90
2565;DHT22;1292;48.020;7.822;2022-12-10T17:56:26;1.80;99.90
2565;DHT22;1292;48.020;7.822;2022-12-10T17:58:54;1.80;99.90
2565;DHT22;1292;48.020;7.822;2022-12-10T18:01:21;1.80;99.90
2565;DHT22;1292;48.020;7.822;2022-12-10T18:03:48;1.80;99.90
2565;DHT22;1292;48.020;7.822;2022-12-10T18:06:18;1.90;99.90
2565;DHT22;1292;48.020;7.822;2022-12-10T18:08:48;1.90;99.90
2565;DHT22;1292;48.020;7.822;2022-12-10T18:11:17;2.00;99.90
2565;DHT22;1292;48.020;7.822;2022-12-10T18:13:45;2.00;99.90
2565;DHT22;1292;48.020;7.822;2022-12-10T18:16:12;2.00;99.90
2565;DHT22;1292;48.020;7.822;2022-12-10T18:18:39;2.00;99.90
2565;DHT22;1292;48.020;7.822;2022-12-10T18:21:07;2.10;99.90
2565;DHT22;1292;48.020;7.822;2022-12-10T18:23:34;2.10;99.90
2565;DHT22;1292;48.020;7.822;2022-12-10T18:26:08;2.10;99.90
2565;DHT22;1292;48.020;7.822;2022-12-10T18:28:50;2.00;99.90
2565;DHT22;1292;48.020;7.822;2022-12-10T18:31:19;2.00;99.90
2565;DHT22;1292;48.020;7.822;2022-12-10T18:33:49;2.00;99.90
2565;DHT22;1292;48.020;7.822;2022-12-10T18:36:18;1.90;99.90
2565;DHT22;1292;48.020;7.822;2022-12-10T18:38:46;1.90;99.90
2565;DHT22;1292;48.020;7.822;2022-12-10T18:41:15;1.90;99.90
2565;DHT22;1292;48.020;7.822;2022-12-10T18:43:44;1.80;99.90
2565;DHT22;1292;48.020;7.822;2022-12-10T18:46:13;1.90;99.90
2565;DHT22;1292;48.020;7.822;2022-12-10T18:48:41;1.90;99.90
2565;DHT22;1292;48.020;7.822;2022-12-10T18:51:10;2.00;99.90
2565;DHT22;1292;48.020;7.822;2022-12-10T18:53:38;2.00;99.90
2565;DHT22;1292;48.020;7.822;2022-12-10T18:56:05;2.00;99.90
2565;DHT22;1292;48.020;7.822;2022-12-10T18:58:34;2.00;99.90
2565;DHT22;1292;48.020;7.822;2022-12-10T19:01:02;2.00;99.90
2565;DHT22;1292;48.020;7.822;2022-12-10T19:03:30;2.00;99.90
2565;DHT22;1292;48.020;7.822;2022-12-10T19:05:57;1.90;99.90
2565;DHT22;1292;48.020;7.822;2022-12-10T19:08:24;1.90;99.90
2565;DHT22;1292;48.020;7.822;2022-12-10T19:10:53;1.90;99.90
2565;DHT22;1292;48.020;7.822;2022-12-10T19:13:20;1.80;99.90
2565;DHT22;1292;48.020;7.822;2022-12-10T19:15:48;1.80;99.90
2565;DHT22;1292;48.020;7.822;2022-12-10T19:18:17;1.70;99.90
2565;DHT22;1292;48.020;7.822;2022-12-10T19:20:44;1.70;99.90
2565;DHT22;1292;48.020;7.822;2022-12-10T19:23:11;1.70;99.90
2565;DHT22;1292;48.020;7.822;2022-12-10T19:25:38;1.60;99.90
2565;DHT22;1292;48.020;7.822;2022-12-10T19:28:05;1.50;99.90
2565;DHT22;1292;48.020;7.822;2022-12-10T19:30:32;1.50;99.90
2565;DHT22;1292;48.020;7.822;2022-12-10T19:33:01;1.50;99.90
2565;DHT22;1292;48.020;7.822;2022-12-10T19:35:29;1.50;99.90
2565;DHT22;1292;48.020;7.822;2022-12-10T19:37:56;1.40;99.90
2565;DHT22;1292;48.020;7.822;2022-12-10T19:40:26;1.40;99.90
2565;DHT22;1292;48.020;7.822;2022-12-10T19:42:54;1.40;99.90
2565;DHT22;1292;48.020;7.822;2022-12-10T19:45:22;1.30;99.90
2565;DHT22;1292;48.020;7.822;2022-12-10T19:47:50;1.20;99.90
2565;DHT22;1292;48.020;7.822;2022-12-10T19:50:23;1.20;99.90
2565;DHT22;1292;48.020;7.822;2022-12-10T19:52:50;1.00;99.90
2565;DHT22;1292;48.020;7.822;2022-12-10T19:55:19;1.00;99.90
2565;DHT22;1292;48.020;7.822;2022-12-10T19:57:46;1.00;99.90
2565;DHT22;1292;48.020;7.822;2022-12-10T20:00:16;1.00;99.90
2565;DHT22;1292;48.020;7.822;2022-12-10T20:02:44;1.00;99.90
2565;DHT22;1292;48.020;7.822;2022-12-10T20:05:13;0.90;99.90
2565;DHT22;1292;48.020;7.822;2022-12-10T20:07:41;1.00;99.90
2565;DHT22;1292;48.020;7.822;2022-12-10T20:10:16;1.00;99.90
2565;DHT22;1292;48.020;7.822;2022-12-10T20:12:44;1.00;99.90
2565;DHT22;1292;48.020;7.822;2022-12-10T20:15:11;1.10;99.90
2565;DHT22;1292;48.020;7.822;2022-12-10T20:17:39;1.00;99.90
2565;DHT22;1292;48.020;7.822;2022-12-10T20:20:09;1.10;99.90
2565;DHT22;1292;48.020;7.822;2022-12-10T20:22:40;1.20;99.90
2565;DHT22;1292;48.020;7.822;2022-12-10T20:25:08;1.20;99.90
2565;DHT22;1292;48.020;7.822;2022-12-10T20:27:36;1.20;99.90
2565;DHT22;1292;48.020;7.822;2022-12-10T20:30:04;1.20;99.90
2565;DHT22;1292;48.020;7.822;2022-12-10T20:32:31;1.20;99.90
2565;DHT22;1292;48.020;7.822;2022-12-10T20:34:58;1.20;99.90
2565;DHT22;1292;48.020;7.822;2022-12-10T20:37:25;1.20;99.90
2565;DHT22;1292;48.020;7.822;2022-12-10T20:39:55;1.30;99.90
2565;DHT22;1292;48.020;7.822;2022-12-10T20:42:22;1.20;99.90
2565;DHT22;1292;48.020;7.822;2022-12-10T20:44:49;1.20;99.90
2565;DHT22;1292;48.020;7.822;2022-12-10T20:47:16;1.30;99.90
2565;DHT22;1292;48.020;7.822;2022-12-10T20:49:43;1.30;99.90
2565;DHT22;1292;48.020;7.822;2022-12-10T20:52:10;1.40;99.90
2565;DHT22;1292;48.020;7.822;2022-12-10T20:54:37;1.30;99.90
2565;DHT22;1292;48.020;7.822;2022-12-10T20:57:06;1.20;99.90
2565;DHT22;1292;48.020;7.822;2022-12-10T20:59:32;1.20;99.90
2565;DHT22;1292;48.020;7.822;2022-12-10T21:02:00;1.10;99.90
2565;DHT22;1292;48.020;7.822;2022-12-10T21:04:27;1.10;99.90
2565;DHT22;1292;48.020;7.822;2022-12-10T21:06:54;1.10;99.90
2565;DHT22;1292;48.020;7.822;2022-12-10T21:09:22;1.10;99.90
2565;DHT22;1292;48.020;7.822;2022-12-10T21:11:49;1.10;99.90
2565;DHT22;1292;48.020;7.822;2022-12-10T21:14:17;1.30;99.90
2565;DHT22;1292;48.020;7.822;2022-12-10T21:16:44;1.20;99.90
2565;DHT22;1292;48.020;7.822;2022-12-10T21:19:12;1.20;99.90
2565;DHT22;1292;48.020;7.822;2022-12-10T21:21:38;1.20;99.90
2565;DHT22;1292;48.020;7.822;2022-12-10T21:24:07;1.10;99.90
2565;DHT22;1292;48.020;7.822;2022-12-10T21:26:34;1.00;99.90
2565;DHT22;1292;48.020;7.822;2022-12-10T21:29:02;1.10;99.90
2565;DHT22;1292;48.020;7.822;2022-12-10T21:31:31;1.10;99.90
2565;DHT22;1292;48.020;7.822;2022-12-10T21:33:58;1.00;99.90
2565;DHT22;1292;48.020;7.822;2022-12-10T21:36:25;0.90;99.90
2565;DHT22;1292;48.020;7.822;2022-12-10T21:38:53;0.80;99.90
2565;DHT22;1292;48.020;7.822;2022-12-10T21:41:22;0.70;99.90
2565;DHT22;1292;48.020;7.822;2022-12-10T21:44:06;0.70;99.90
2565;DHT22;1292;48.020;7.822;2022-12-10T21:46:35;0.60;99.90
2565;DHT22;1292;48.020;7.822;2022-12-10T21:49:02;0.60;99.90
2565;DHT22;1292;48.020;7.822;2022-12-10T21:51:30;0.50;99.90
2565;DHT22;1292;48.020;7.822;2022-12-10T21:53:58;0.50;99.90
2565;DHT22;1292;48.020;7.822;2022-12-10T21:56:26;0.50;99.90
2565;DHT22;1292;48.020;7.822;2022-12-10T21:58:54;0.50;99.90
